createdAt,value
2022-09-24T00:01:39.119Z,76901.03
2022-09-24T00:04:09.713Z,76892.91
2022-09-24T00:06:43.067Z,76894.94
2022-09-24T00:09:11.613Z,76901.03
2022-09-24T00:11:39.206Z,76905.09
2022-09-24T00:14:07.462Z,76909.13
2022-09-24T00:16:35.294Z,76905.09
2022-09-24T00:19:04.324Z,76905.09
2022-09-24T00:21:34.152Z,76915.22
2022-09-24T00:24:04.694Z,76921.31
2022-09-24T00:26:49.501Z,76925.34
2022-09-24T00:29:22.023Z,76925.34
2022-09-24T00:31:50.974Z,76925.34
2022-09-24T00:34:18.927Z,76925.34
2022-09-24T00:36:46.906Z,76917.25
2022-09-24T00:39:15.391Z,76933.47
2022-09-24T00:41:45.410Z,76925.34
2022-09-24T00:44:54.711Z,76941.56
2022-09-24T00:47:28.874Z,76945.63
2022-09-24T00:50:04.724Z,76949.69
2022-09-24T00:52:33.991Z,76957.78
2022-09-24T00:55:01.189Z,76957.78
2022-09-24T00:57:28.928Z,76961.84
2022-09-24T00:59:56.560Z,76953.75
2022-09-24T01:02:24.455Z,76949.69
2022-09-24T01:04:56.197Z,76945.63
2022-09-24T01:07:24.036Z,76949.69
2022-09-24T01:09:51.031Z,76953.75
2022-09-24T01:12:38.428Z,76961.84
2022-09-24T01:15:33.120Z,76967.94
2022-09-24T01:18:06.036Z,76971.97
2022-09-24T01:20:57.707Z,76974.00
2022-09-24T01:23:47.794Z,76974.00
2022-09-24T01:26:55.660Z,76974.00
2022-09-24T01:29:49.651Z,76978.06
2022-09-24T01:32:38.267Z,76982.13
2022-09-24T01:35:22.093Z,76986.16
2022-09-24T01:37:54.127Z,76982.13
2022-09-24T01:40:25.182Z,76986.16
2022-09-24T01:42:55.008Z,76986.16
2022-09-24T01:45:22.363Z,76986.16
2022-09-24T01:47:50.129Z,76990.22
2022-09-24T01:50:19.279Z,76998.34
2022-09-24T01:52:52.019Z,76994.28
2022-09-24T01:55:24.569Z,77002.41
2022-09-24T01:58:07.977Z,77002.41
2022-09-24T02:00:41.431Z,77006.44
2022-09-24T02:03:16.088Z,76994.28
2022-09-24T02:06:03.884Z,76994.28
2022-09-24T02:08:39.209Z,76992.25
2022-09-24T02:11:08.600Z,76988.19
2022-09-24T02:13:40.296Z,76982.13
2022-09-24T02:16:11.925Z,76969.94
2022-09-24T02:18:42.880Z,76965.91
2022-09-24T02:21:13.333Z,76965.91
2022-09-24T02:23:45.595Z,76974.00
2022-09-24T02:26:12.971Z,76974.00
2022-09-24T02:28:41.995Z,76990.22
2022-09-24T02:31:14.440Z,77002.41
2022-09-24T02:34:03.143Z,76998.34
2022-09-24T02:36:30.664Z,77006.44
2022-09-24T02:38:57.801Z,77002.41
2022-09-24T02:41:25.660Z,77014.56
2022-09-24T02:43:52.830Z,77018.63
2022-09-24T02:46:20.159Z,77026.72
2022-09-24T02:48:47.624Z,77014.56
2022-09-24T02:51:14.630Z,77010.50
2022-09-24T02:53:41.717Z,77002.41
2022-09-24T02:56:08.965Z,77002.41
2022-09-24T02:58:37.513Z,76994.28
2022-09-24T03:01:05.921Z,76994.28
2022-09-24T03:03:32.784Z,77000.38
2022-09-24T03:05:59.733Z,77006.44
2022-09-24T03:08:27.215Z,77006.44
2022-09-24T03:10:56.075Z,77010.50
2022-09-24T03:13:23.443Z,77018.63
2022-09-24T03:15:50.706Z,77026.72
2022-09-24T03:18:17.595Z,77030.78
2022-09-24T03:20:44.633Z,77047.00
2022-09-24T03:23:11.680Z,77055.09
2022-09-24T03:25:38.651Z,77063.22
2022-09-24T03:28:05.552Z,77073.34
2022-09-24T03:30:51.014Z,77071.31
2022-09-24T03:33:18.090Z,77079.44
2022-09-24T03:35:45.097Z,77079.44
2022-09-24T03:38:11.916Z,77071.31
2022-09-24T03:40:38.775Z,77067.28
2022-09-24T03:43:05.806Z,77063.22
2022-09-24T03:45:33.101Z,77063.22
2022-09-24T03:48:00.194Z,77061.19
2022-09-24T03:50:27.161Z,77065.25
2022-09-24T03:52:54.006Z,77059.16
2022-09-24T03:55:20.815Z,77067.28
2022-09-24T03:57:47.903Z,77067.28
2022-09-24T04:00:14.941Z,77059.16
2022-09-24T04:02:42.678Z,77059.16
2022-09-24T04:05:09.860Z,77051.06
2022-09-24T04:07:36.621Z,77047.00
2022-09-24T04:10:03.793Z,77063.22
2022-09-24T04:12:31.266Z,77079.44
2022-09-24T04:14:58.087Z,77083.50
2022-09-24T04:17:29.098Z,77093.63
2022-09-24T04:19:56.909Z,77103.75
2022-09-24T04:22:25.000Z,77111.88
2022-09-24T04:24:52.663Z,77103.75
2022-09-24T04:27:20.578Z,77111.88
2022-09-24T04:29:47.460Z,77111.88
2022-09-24T04:32:14.351Z,77107.81
2022-09-24T04:34:41.365Z,77107.81
2022-09-24T04:37:09.945Z,77095.66
2022-09-24T04:39:36.863Z,77093.63
2022-09-24T04:42:04.221Z,77075.38
2022-09-24T04:44:31.109Z,77067.28
2022-09-24T04:47:02.290Z,77055.09
2022-09-24T04:49:29.773Z,77047.00
2022-09-24T04:51:58.206Z,77051.06
2022-09-24T04:54:25.571Z,77047.00
2022-09-24T04:56:52.627Z,77044.97
2022-09-24T04:59:19.470Z,77042.94
2022-09-24T05:01:47.201Z,77034.84
2022-09-24T05:04:14.269Z,77030.78
2022-09-24T05:06:41.638Z,77022.66
2022-09-24T05:09:12.384Z,77018.63
2022-09-24T05:11:39.818Z,77010.50
2022-09-24T05:14:07.131Z,77000.38
2022-09-24T05:16:34.194Z,76998.34
2022-09-24T05:19:02.108Z,76990.22
2022-09-24T05:21:29.007Z,76986.16
2022-09-24T05:23:55.883Z,76963.88
2022-09-24T05:26:41.667Z,76961.84
2022-09-24T05:29:08.585Z,76949.69
2022-09-24T05:31:36.848Z,76945.63
2022-09-24T05:34:03.927Z,76929.41
2022-09-24T05:36:31.339Z,76913.19
2022-09-24T05:38:58.287Z,76901.03
2022-09-24T05:41:25.276Z,76892.91
2022-09-24T05:43:52.102Z,76872.66
2022-09-24T05:46:19.097Z,76856.44
2022-09-24T05:48:45.972Z,76840.22
2022-09-24T05:51:12.922Z,76828.03
2022-09-24T05:53:39.852Z,76819.94
2022-09-24T05:56:06.907Z,76815.88
2022-09-24T05:58:33.865Z,76811.81
2022-09-24T06:01:01.720Z,76811.81
2022-09-24T06:03:32.325Z,76801.69
2022-09-24T06:06:02.353Z,76783.44
2022-09-24T06:08:33.128Z,76771.28
2022-09-24T06:11:01.147Z,76759.13
2022-09-24T06:13:29.074Z,76755.06
2022-09-24T06:16:04.444Z,76746.97
2022-09-24T06:18:35.022Z,76736.81
2022-09-24T06:21:03.968Z,76734.78
2022-09-24T06:23:35.107Z,76734.78
2022-09-24T06:26:02.453Z,76726.69
2022-09-24T06:28:29.653Z,76710.47
2022-09-24T06:31:00.419Z,76702.34
2022-09-24T06:33:28.147Z,76692.22
2022-09-24T06:35:55.107Z,76673.97
2022-09-24T06:38:22.031Z,76657.75
2022-09-24T06:40:48.850Z,76645.59
2022-09-24T06:43:18.121Z,76637.50
2022-09-24T06:45:45.614Z,76621.28
2022-09-24T06:48:14.190Z,76617.22
2022-09-24T06:50:43.379Z,76605.06
2022-09-24T06:53:11.940Z,76603.03
2022-09-24T06:55:39.456Z,76596.94
2022-09-24T06:58:20.065Z,76596.94
2022-09-24T07:00:54.946Z,76601.00
2022-09-24T07:03:22.446Z,76586.81
2022-09-24T07:05:49.463Z,76580.72
2022-09-24T07:08:17.354Z,76580.72
2022-09-24T07:10:46.023Z,76576.69
2022-09-24T07:13:14.239Z,76572.63
2022-09-24T07:15:42.630Z,76564.50
2022-09-24T07:18:10.557Z,76562.50
2022-09-24T07:20:37.847Z,76560.47
2022-09-24T07:23:05.826Z,76554.38
2022-09-24T07:25:33.712Z,76540.19
2022-09-24T07:28:05.560Z,76532.09
2022-09-24T07:30:33.873Z,76526.00
2022-09-24T07:33:01.671Z,76515.88
2022-09-24T07:35:29.402Z,76515.88
2022-09-24T07:38:00.554Z,76517.88
2022-09-24T07:40:28.862Z,76513.84
2022-09-24T07:42:56.101Z,76511.81
2022-09-24T07:45:25.018Z,76511.81
2022-09-24T07:47:57.815Z,76499.66
2022-09-24T07:50:25.557Z,76491.53
2022-09-24T07:52:52.526Z,76477.34
2022-09-24T07:55:19.648Z,76459.09
2022-09-24T07:57:48.606Z,76446.94
2022-09-24T08:00:17.569Z,76422.63
2022-09-24T08:02:45.975Z,76410.47
2022-09-24T08:05:15.201Z,76402.34
2022-09-24T08:07:42.830Z,76394.25
2022-09-24T08:10:10.158Z,76398.28
2022-09-24T08:12:37.615Z,76398.28
2022-09-24T08:15:04.833Z,76394.25
2022-09-24T08:17:31.859Z,76382.09
2022-09-24T08:19:58.817Z,76369.91
2022-09-24T08:22:26.459Z,76369.91
2022-09-24T08:24:53.562Z,76369.91
2022-09-24T08:27:20.564Z,76357.75
2022-09-24T08:29:47.627Z,76351.69
2022-09-24T08:32:15.056Z,76345.59
2022-09-24T08:34:41.898Z,76337.50
2022-09-24T08:37:08.812Z,76329.38
2022-09-24T08:39:35.853Z,76327.34
2022-09-24T08:42:06.624Z,76317.22
2022-09-24T08:44:59.391Z,76307.09
2022-09-24T08:47:37.804Z,76303.03
2022-09-24T08:50:09.963Z,76296.94
2022-09-24T08:52:42.726Z,76288.84
2022-09-24T08:55:21.650Z,76288.84
2022-09-24T08:58:08.917Z,76280.72
2022-09-24T09:00:44.076Z,76264.53
2022-09-24T09:03:42.405Z,76248.31
2022-09-24T09:06:15.172Z,76244.25
2022-09-24T09:09:13.113Z,76244.25
2022-09-24T09:11:44.232Z,76240.19
2022-09-24T09:14:26.931Z,76236.16
2022-09-24T09:17:01.432Z,76238.16
2022-09-24T09:19:33.980Z,76232.09
2022-09-24T09:22:08.193Z,76234.13
2022-09-24T09:24:44.399Z,76209.78
2022-09-24T09:27:14.866Z,76199.66
2022-09-24T09:29:56.255Z,76191.56
2022-09-24T09:33:00.579Z,76183.44
2022-09-24T09:35:59.457Z,76187.50
2022-09-24T09:38:49.430Z,76175.34
2022-09-24T09:41:31.750Z,76146.97
2022-09-24T09:44:02.816Z,76130.75
2022-09-24T09:46:37.800Z,76130.75
2022-09-24T09:49:07.248Z,76126.69
2022-09-24T09:51:39.201Z,76126.69
2022-09-24T09:54:06.060Z,76118.59
2022-09-24T09:56:42.007Z,76106.41
2022-09-24T09:59:19.328Z,76090.22
2022-09-24T10:01:49.146Z,76074.00
2022-09-24T10:04:32.417Z,76063.88
2022-09-24T10:07:07.987Z,76047.66
2022-09-24T10:09:35.585Z,76037.50
2022-09-24T10:12:08.961Z,76033.47
2022-09-24T10:14:36.253Z,76029.41
2022-09-24T10:17:05.829Z,76029.41
2022-09-24T10:19:36.581Z,76029.41
2022-09-24T10:22:37.093Z,76013.19
2022-09-24T10:25:04.532Z,76001.03
2022-09-24T10:27:35.576Z,75988.88
2022-09-24T10:30:30.792Z,75976.72
2022-09-24T10:32:59.639Z,75960.50
2022-09-24T10:35:38.693Z,75956.44
2022-09-24T10:38:18.831Z,75950.38
2022-09-24T10:40:46.622Z,75948.34
2022-09-24T10:43:19.309Z,75940.22
2022-09-24T10:45:56.595Z,75928.06
2022-09-24T10:48:28.657Z,75919.97
2022-09-24T10:51:29.354Z,75911.84
2022-09-24T10:54:07.853Z,75907.81
2022-09-24T10:56:46.463Z,75899.69
2022-09-24T10:59:42.731Z,75903.75
2022-09-24T11:02:39.808Z,75899.69
2022-09-24T11:05:15.532Z,75907.81
2022-09-24T11:07:56.570Z,75917.94
2022-09-24T11:10:35.756Z,75928.06
2022-09-24T11:13:31.652Z,75936.19
2022-09-24T11:16:43.061Z,75928.06
2022-09-24T11:19:27.042Z,75919.97
2022-09-24T11:22:03.068Z,75930.09
2022-09-24T11:24:54.561Z,75932.13
2022-09-24T11:27:48.173Z,75928.06
2022-09-24T11:30:19.296Z,75924.00
2022-09-24T11:33:07.505Z,75924.00
2022-09-24T11:36:01.412Z,75928.06
2022-09-24T11:38:35.286Z,75928.06
2022-09-24T11:41:23.065Z,75924.00
2022-09-24T11:43:56.123Z,75924.00
2022-09-24T11:46:29.586Z,75932.13
2022-09-24T11:49:14.813Z,75911.84
2022-09-24T11:51:57.666Z,75913.88
2022-09-24T11:54:43.480Z,75924.00
2022-09-24T11:57:22.017Z,75915.91
2022-09-24T12:00:12.197Z,75911.84
2022-09-24T12:02:50.573Z,75905.78
2022-09-24T12:05:22.131Z,75899.69
2022-09-24T12:07:58.654Z,75887.53
2022-09-24T12:10:30.004Z,75887.53
2022-09-24T12:13:12.672Z,75895.66
2022-09-24T12:15:48.501Z,75895.66
2022-09-24T12:18:29.016Z,75911.84
2022-09-24T12:21:04.659Z,75915.91
2022-09-24T12:23:35.680Z,75911.84
2022-09-24T12:26:05.822Z,75899.69
2022-09-24T12:29:02.219Z,75891.59
2022-09-24T12:32:04.569Z,75887.53
2022-09-24T12:34:37.407Z,75883.47
2022-09-24T12:37:10.584Z,75875.38
2022-09-24T12:39:48.033Z,75881.44
2022-09-24T12:42:17.425Z,75875.38
2022-09-24T12:44:51.346Z,75877.41
2022-09-24T12:47:24.935Z,75879.44
2022-09-24T12:49:58.099Z,75867.28
2022-09-24T12:52:32.367Z,75865.25
2022-09-24T12:55:02.457Z,75863.22
2022-09-24T12:57:35.994Z,75857.13
2022-09-24T13:00:31.757Z,75855.09
2022-09-24T13:03:00.009Z,75855.09
2022-09-24T13:05:32.304Z,75851.06
2022-09-24T13:08:22.443Z,75847.00
2022-09-24T13:11:00.924Z,75842.94
2022-09-24T13:13:32.988Z,75851.06
2022-09-24T13:16:02.055Z,75855.09
2022-09-24T13:18:31.279Z,75859.16
2022-09-24T13:21:06.982Z,75855.09
2022-09-24T13:23:36.692Z,75855.09
2022-09-24T13:26:07.421Z,75859.16
2022-09-24T13:28:55.448Z,75851.06
2022-09-24T13:31:22.647Z,75851.06
2022-09-24T13:33:55.011Z,75840.91
2022-09-24T13:36:28.768Z,75838.91
2022-09-24T13:38:58.083Z,75832.81
2022-09-24T13:41:40.106Z,75826.72
2022-09-24T13:44:26.668Z,75834.84
2022-09-24T13:47:05.127Z,75822.69
2022-09-24T13:49:34.209Z,75826.72
2022-09-24T13:52:28.509Z,75824.72
2022-09-24T13:55:00.764Z,75826.72
2022-09-24T13:57:29.209Z,75820.66
2022-09-24T14:00:19.920Z,75826.72
2022-09-24T14:02:53.070Z,75826.72
2022-09-24T14:05:22.033Z,75826.72
2022-09-24T14:08:02.111Z,75828.75
2022-09-24T14:10:29.982Z,75822.69
2022-09-24T14:13:09.000Z,75818.63
2022-09-24T14:15:36.648Z,75810.53
2022-09-24T14:18:04.854Z,75804.44
2022-09-24T14:20:35.874Z,75798.38
2022-09-24T14:23:04.971Z,75790.25
2022-09-24T14:25:35.400Z,75790.25
2022-09-24T14:28:04.460Z,75802.41
2022-09-24T14:30:33.868Z,75794.31
2022-09-24T14:33:12.474Z,75794.31
2022-09-24T14:35:44.426Z,75790.25
2022-09-24T14:38:20.790Z,75786.19
2022-09-24T14:40:51.938Z,75782.16
2022-09-24T14:43:31.256Z,75786.19
2022-09-24T14:46:14.562Z,75786.19
2022-09-24T14:48:42.286Z,75774.03
2022-09-24T14:51:27.676Z,75778.09
2022-09-24T14:54:04.088Z,75786.19
2022-09-24T14:56:33.324Z,75790.25
2022-09-24T14:59:00.797Z,75802.41
2022-09-24T15:01:32.891Z,75818.63
2022-09-24T15:04:14.328Z,75822.69
2022-09-24T15:06:47.191Z,75830.78
2022-09-24T15:09:28.885Z,75834.84
2022-09-24T15:12:08.517Z,75842.94
2022-09-24T15:14:36.180Z,75851.06
2022-09-24T15:17:19.214Z,75863.22
2022-09-24T15:19:47.542Z,75877.41
2022-09-24T15:22:15.262Z,75891.59
2022-09-24T15:24:42.056Z,75897.66
2022-09-24T15:27:19.103Z,75907.81
2022-09-24T15:29:46.034Z,75915.91
2022-09-24T15:32:19.055Z,75928.06
2022-09-24T15:34:47.438Z,75948.34
2022-09-24T15:37:22.798Z,75958.47
2022-09-24T15:39:50.800Z,75968.59
2022-09-24T15:42:20.643Z,75986.84
2022-09-24T15:44:48.037Z,75996.97
2022-09-24T15:47:15.409Z,76021.31
2022-09-24T15:49:42.509Z,76033.47
2022-09-24T15:52:15.820Z,76049.69
2022-09-24T15:54:42.971Z,76053.72
2022-09-24T15:57:12.524Z,76065.88
2022-09-24T15:59:40.416Z,76074.00
2022-09-24T16:02:23.519Z,76082.09
2022-09-24T16:04:50.462Z,76084.13
2022-09-24T16:07:18.324Z,76094.25
2022-09-24T16:09:45.543Z,76108.44
2022-09-24T16:12:16.642Z,76124.66
2022-09-24T16:14:44.713Z,76122.63
2022-09-24T16:17:12.142Z,76126.69
2022-09-24T16:19:38.987Z,76142.91
2022-09-24T16:22:06.283Z,76155.06
2022-09-24T16:24:34.225Z,76171.28
2022-09-24T16:27:01.725Z,76175.34
2022-09-24T16:29:29.561Z,76187.50
2022-09-24T16:31:56.385Z,76193.56
2022-09-24T16:34:23.176Z,76211.81
2022-09-24T16:36:50.642Z,76223.97
2022-09-24T16:39:17.427Z,76228.03
2022-09-24T16:41:44.540Z,76240.19
2022-09-24T16:44:15.277Z,76252.34
2022-09-24T16:46:43.286Z,76256.41
2022-09-24T16:49:10.652Z,76266.53
2022-09-24T16:51:38.110Z,76276.69
2022-09-24T16:54:08.291Z,76284.78
2022-09-24T16:56:35.252Z,76284.78
2022-09-24T16:59:02.581Z,76282.75
2022-09-24T17:01:29.533Z,76292.91
2022-09-24T17:03:58.747Z,76288.84
2022-09-24T17:06:29.487Z,76292.91
2022-09-24T17:09:15.878Z,76305.06
2022-09-24T17:11:42.927Z,76313.16
2022-09-24T17:14:12.396Z,76321.28
2022-09-24T17:16:40.863Z,76325.31
2022-09-24T17:19:09.452Z,76329.38
2022-09-24T17:21:38.683Z,76333.44
2022-09-24T17:24:06.161Z,76337.50
2022-09-24T17:26:33.472Z,76349.66
2022-09-24T17:29:00.372Z,76357.75
2022-09-24T17:31:45.691Z,76361.81
2022-09-24T17:34:15.165Z,76369.91
2022-09-24T17:36:42.696Z,76378.03
2022-09-24T17:39:12.898Z,76382.09
2022-09-24T17:41:39.945Z,76382.09
2022-09-24T17:44:07.290Z,76386.13
2022-09-24T17:46:36.039Z,76390.19
2022-09-24T17:49:04.683Z,76396.28
2022-09-24T17:51:34.491Z,76402.34
2022-09-24T17:54:06.811Z,76398.28
2022-09-24T17:56:38.801Z,76394.25
2022-09-24T17:59:10.761Z,76398.28
2022-09-24T18:01:39.682Z,76402.34
2022-09-24T18:04:13.061Z,76406.41
2022-09-24T18:06:41.584Z,76396.28
2022-09-24T18:09:10.217Z,76402.34
2022-09-24T18:11:43.070Z,76402.34
2022-09-24T18:14:14.790Z,76402.34
2022-09-24T18:16:41.940Z,76400.31
2022-09-24T18:19:11.132Z,76406.41
2022-09-24T18:21:38.678Z,76406.41
2022-09-24T18:24:05.879Z,76406.41
2022-09-24T18:26:39.270Z,76402.34
2022-09-24T18:29:12.018Z,76402.34
2022-09-24T18:31:39.370Z,76406.41
2022-09-24T18:34:07.795Z,76408.44
2022-09-24T18:36:37.946Z,76404.38
2022-09-24T18:39:06.910Z,76402.34
2022-09-24T18:41:34.426Z,76406.41
2022-09-24T18:44:01.836Z,76416.53
2022-09-24T18:46:47.073Z,76418.56
2022-09-24T18:49:14.248Z,76430.72
2022-09-24T18:51:41.180Z,76434.78
2022-09-24T18:54:12.620Z,76446.94
2022-09-24T18:56:39.983Z,76451.00
2022-09-24T18:59:11.823Z,76455.06
2022-09-24T19:01:39.678Z,76461.13
2022-09-24T19:04:11.181Z,76465.19
2022-09-24T19:06:40.690Z,76471.28
2022-09-24T19:09:09.944Z,76481.41
2022-09-24T19:11:37.037Z,76491.53
2022-09-24T19:14:04.183Z,76495.59
2022-09-24T19:16:31.739Z,76499.66
2022-09-24T19:19:00.045Z,76499.66
2022-09-24T19:21:27.679Z,76503.69
2022-09-24T19:23:56.885Z,76499.66
2022-09-24T19:26:26.931Z,76507.75
2022-09-24T19:28:54.010Z,76511.81
2022-09-24T19:31:26.969Z,76515.88
2022-09-24T19:33:54.346Z,76523.97
2022-09-24T19:36:44.840Z,76523.97
2022-09-24T19:39:17.251Z,76526.00
2022-09-24T19:41:45.203Z,76540.19
2022-09-24T19:44:13.132Z,76540.19
2022-09-24T19:46:41.298Z,76540.19
2022-09-24T19:49:08.678Z,76548.31
2022-09-24T19:51:36.471Z,76548.31
2022-09-24T19:54:08.050Z,76548.31
2022-09-24T19:56:36.004Z,76548.31
2022-09-24T19:59:04.542Z,76544.25
2022-09-24T20:01:33.286Z,76540.19
2022-09-24T20:04:03.771Z,76544.25
2022-09-24T20:06:33.796Z,76540.19
2022-09-24T20:09:01.274Z,76540.19
2022-09-24T20:11:29.486Z,76540.19
2022-09-24T20:13:57.044Z,76544.25
2022-09-24T20:16:26.656Z,76544.25
2022-09-24T20:18:57.694Z,76548.31
2022-09-24T20:21:27.964Z,76554.38
2022-09-24T20:23:56.723Z,76552.34
2022-09-24T20:26:42.672Z,76560.47
2022-09-24T20:29:10.544Z,76568.56
2022-09-24T20:31:41.214Z,76584.78
2022-09-24T20:34:09.296Z,76564.50
2022-09-24T20:36:36.488Z,76568.56
2022-09-24T20:39:04.120Z,76564.50
2022-09-24T20:41:31.137Z,76560.47
2022-09-24T20:43:58.186Z,76560.47
2022-09-24T20:46:28.537Z,76550.31
2022-09-24T20:49:00.200Z,76544.25
2022-09-24T20:51:29.132Z,76544.25
2022-09-24T20:53:58.127Z,76544.25
2022-09-24T20:56:26.816Z,76538.16
2022-09-24T20:58:54.387Z,76540.19
2022-09-24T21:01:21.982Z,76538.16
2022-09-24T21:03:50.172Z,76530.06
2022-09-24T21:06:20.765Z,76523.97
2022-09-24T21:08:47.722Z,76532.09
2022-09-24T21:11:20.567Z,76540.19
2022-09-24T21:13:52.848Z,76540.19
2022-09-24T21:16:22.324Z,76552.34
2022-09-24T21:18:50.836Z,76556.41
2022-09-24T21:21:38.919Z,76554.38
2022-09-24T21:24:10.119Z,76560.47
2022-09-24T21:26:38.513Z,76572.63
2022-09-24T21:29:08.562Z,76572.63
2022-09-24T21:31:37.932Z,76572.63
2022-09-24T21:34:06.948Z,76578.69
2022-09-24T21:36:42.952Z,76574.66
2022-09-24T21:39:16.124Z,76584.78
2022-09-24T21:41:43.710Z,76582.75
2022-09-24T21:44:14.171Z,76588.84
2022-09-24T21:46:42.959Z,76592.91
2022-09-24T21:49:11.168Z,76598.97
2022-09-24T21:51:38.522Z,76596.94
2022-09-24T21:54:07.415Z,76609.09
2022-09-24T21:56:35.557Z,76613.16
2022-09-24T21:59:26.833Z,76617.22
2022-09-24T22:01:55.231Z,76629.38
2022-09-24T22:04:22.651Z,76633.44
2022-09-24T22:06:51.045Z,76625.31
2022-09-24T22:09:18.981Z,76625.31
2022-09-24T22:11:46.834Z,76629.38
2022-09-24T22:14:14.419Z,76633.44
2022-09-24T22:16:41.671Z,76637.50
2022-09-24T22:19:09.432Z,76641.53
2022-09-24T22:21:36.678Z,76653.72
2022-09-24T22:24:05.015Z,76661.81
2022-09-24T22:26:32.956Z,76673.97
2022-09-24T22:29:00.313Z,76673.97
2022-09-24T22:31:27.772Z,76682.09
2022-09-24T22:34:13.519Z,76684.13
2022-09-24T22:36:40.953Z,76684.13
2022-09-24T22:39:08.684Z,76686.13
2022-09-24T22:41:40.147Z,76682.09
2022-09-24T22:44:07.742Z,76682.09
2022-09-24T22:46:36.302Z,76678.03
2022-09-24T22:49:05.073Z,76671.94
2022-09-24T22:51:33.676Z,76665.88
2022-09-24T22:54:00.717Z,76665.88
2022-09-24T22:56:28.528Z,76665.88
2022-09-24T22:58:58.517Z,76661.81
2022-09-24T23:01:28.927Z,76657.75
2022-09-24T23:03:56.540Z,76653.72
2022-09-24T23:06:24.153Z,76665.88
2022-09-24T23:08:52.725Z,76653.72
2022-09-24T23:11:29.113Z,76661.81
2022-09-24T23:13:59.339Z,76665.88
2022-09-24T23:16:28.991Z,76669.94
2022-09-24T23:18:59.233Z,76673.97
2022-09-24T23:21:28.430Z,76678.03
2022-09-24T23:23:57.276Z,76682.09
2022-09-24T23:26:25.698Z,76686.13
2022-09-24T23:28:54.806Z,76686.13
2022-09-24T23:31:25.389Z,76694.25
2022-09-24T23:33:54.379Z,76694.25
2022-09-24T23:36:22.301Z,76702.34
2022-09-24T23:38:49.896Z,76702.34
2022-09-24T23:41:17.357Z,76710.47
2022-09-24T23:43:44.234Z,76702.34
2022-09-24T23:46:12.883Z,76708.44
2022-09-24T23:48:40.334Z,76708.44
2022-09-24T23:51:08.277Z,76706.41
2022-09-24T23:53:36.421Z,76702.34
2022-09-24T23:56:04.741Z,76702.34
2022-09-24T23:58:32.139Z,76706.41
